sensor_id;sensor_type;location;lat;lon;timestamp;pressure;altitude;pressure_sealevel;temperature;humidity
40596;BME280;26304;48.794;9.820;2023-03-19T00:01:44;96014.50;;;19.35;44.78
40596;BME280;26304;48.794;9.820;2023-03-19T00:07:27;96012.63;;;19.32;44.35
40596;BME280;26304;48.794;9.820;2023-03-19T00:13:10;96011.88;;;19.31;44.88
40596;BME280;26304;48.794;9.820;2023-03-19T00:18:53;96016.41;;;19.31;44.42
40596;BME280;26304;48.794;9.820;2023-03-19T00:24:36;96023.94;;;19.29;44.62
40596;BME280;26304;48.794;9.820;2023-03-19T00:30:20;96022.81;;;19.30;44.71
40596;BME280;26304;48.794;9.820;2023-03-19T00:36:03;96025.84;;;19.28;44.88
40596;BME280;26304;48.794;9.820;2023-03-19T00:41:46;96029.22;;;19.25;44.65
40596;BME280;26304;48.794;9.820;2023-03-19T00:47:31;96026.59;;;19.25;44.85
40596;BME280;26304;48.794;9.820;2023-03-19T00:53:14;96033.75;;;19.24;44.84
40596;BME280;26304;48.794;9.820;2023-03-19T00:58:57;96032.63;;;19.22;44.86
40596;BME280;26304;48.794;9.820;2023-03-19T01:04:41;96040.53;;;19.22;44.64
40596;BME280;26304;48.794;9.820;2023-03-19T01:10:24;96047.69;;;19.21;44.82
40596;BME280;26304;48.794;9.820;2023-03-19T01:16:07;96042.81;;;19.20;45.01
40596;BME280;26304;48.794;9.820;2023-03-19T01:21:50;96042.44;;;19.18;44.58
40596;BME280;26304;48.794;9.820;2023-03-19T01:27:33;96044.31;;;19.17;44.73
40596;BME280;26304;48.794;9.820;2023-03-19T01:33:16;96043.56;;;19.17;44.67
40596;BME280;26304;48.794;9.820;2023-03-19T01:39:02;96042.81;;;19.16;44.85
40596;BME280;26304;48.794;9.820;2023-03-19T01:44:44;96049.22;;;19.15;44.72
40596;BME280;26304;48.794;9.820;2023-03-19T01:50:33;96045.06;;;19.14;44.81
40596;BME280;26304;48.794;9.820;2023-03-19T01:56:20;96055.25;;;19.12;44.59
40596;BME280;26304;48.794;9.820;2023-03-19T02:02:08;96051.88;;;19.12;45.20
40596;BME280;26304;48.794;9.820;2023-03-19T02:07:57;96048.84;;;19.10;44.94
40596;BME280;26304;48.794;9.820;2023-03-19T02:13:42;96050.38;;;19.07;45.30
40596;BME280;26304;48.794;9.820;2023-03-19T02:19:29;96060.91;;;19.07;45.01
40596;BME280;26304;48.794;9.820;2023-03-19T02:25:17;96083.84;;;19.06;45.08
40596;BME280;26304;48.794;9.820;2023-03-19T02:31:04;96084.22;;;19.05;45.21
40596;BME280;26304;48.794;9.820;2023-03-19T02:36:50;96087.25;;;19.00;45.14
40596;BME280;26304;48.794;9.820;2023-03-19T02:42:33;96089.53;;;18.98;45.64
40596;BME280;26304;48.794;9.820;2023-03-19T02:48:17;96085.38;;;18.97;45.23
40596;BME280;26304;48.794;9.820;2023-03-19T02:53:59;96090.66;;;18.93;45.53
40596;BME280;26304;48.794;9.820;2023-03-19T02:59:42;96094.78;;;18.91;45.68
40596;BME280;26304;48.794;9.820;2023-03-19T03:05:26;96113.22;;;18.91;45.58
40596;BME280;26304;48.794;9.820;2023-03-19T03:11:08;96119.66;;;18.90;45.53
40596;BME280;26304;48.794;9.820;2023-03-19T03:16:51;96136.19;;;18.86;45.55
40596;BME280;26304;48.794;9.820;2023-03-19T03:22:35;96136.50;;;19.42;44.70
40596;BME280;26304;48.794;9.820;2023-03-19T03:28:18;96144.94;;;20.67;42.58
40596;BME280;26304;48.794;9.820;2023-03-19T03:34:00;96149.25;;;21.37;41.36
40596;BME280;26304;48.794;9.820;2023-03-19T03:39:44;96149.06;;;21.59;41.18
40596;BME280;26304;48.794;9.820;2023-03-19T03:45:28;96149.41;;;21.92;40.82
40596;BME280;26304;48.794;9.820;2023-03-19T03:51:10;96158.22;;;22.43;40.31
40596;BME280;26304;48.794;9.820;2023-03-19T03:56:54;96149.97;;;22.89;39.61
40596;BME280;26304;48.794;9.820;2023-03-19T04:02:36;96161.41;;;23.09;39.36
40596;BME280;26304;48.794;9.820;2023-03-19T04:08:19;96161.47;;;23.02;39.76
40596;BME280;26304;48.794;9.820;2023-03-19T04:14:02;96166.69;;;23.33;39.31
40596;BME280;26304;48.794;9.820;2023-03-19T04:19:45;96175.53;;;23.66;39.09
40596;BME280;26304;48.794;9.820;2023-03-19T04:25:28;96176.75;;;23.82;39.13
40596;BME280;26304;48.794;9.820;2023-03-19T04:31:11;96191.16;;;23.84;39.20
40596;BME280;26304;48.794;9.820;2023-03-19T04:36:54;96185.00;;;23.47;39.90
40596;BME280;26304;48.794;9.820;2023-03-19T04:42:39;96187.84;;;23.76;39.34
40596;BME280;26304;48.794;9.820;2023-03-19T04:48:23;96190.75;;;23.86;39.20
40596;BME280;26304;48.794;9.820;2023-03-19T04:54:06;96181.06;;;23.96;39.53
40596;BME280;26304;48.794;9.820;2023-03-19T04:59:49;96171.56;;;23.54;40.39
40596;BME280;26304;48.794;9.820;2023-03-19T05:05:32;96156.88;;;23.30;40.67
40596;BME280;26304;48.794;9.820;2023-03-19T05:11:15;96148.09;;;23.33;40.80
40596;BME280;26304;48.794;9.820;2023-03-19T05:16:57;96162.69;;;23.21;40.91
40596;BME280;26304;48.794;9.820;2023-03-19T05:22:41;96177.44;;;22.98;41.58
40596;BME280;26304;48.794;9.820;2023-03-19T05:28:23;96179.22;;;22.81;41.87
40596;BME280;26304;48.794;9.820;2023-03-19T05:34:06;96172.97;;;22.44;42.66
40596;BME280;26304;48.794;9.820;2023-03-19T05:39:49;96186.59;;;22.43;42.80
40596;BME280;26304;48.794;9.820;2023-03-19T05:45:32;96190.19;;;22.29;42.87
40596;BME280;26304;48.794;9.820;2023-03-19T05:51:15;96201.59;;;22.22;43.03
40596;BME280;26304;48.794;9.820;2023-03-19T05:56:58;96212.44;;;22.35;42.88
40596;BME280;26304;48.794;9.820;2023-03-19T06:02:41;96224.00;;;22.76;42.25
40596;BME280;26304;48.794;9.820;2023-03-19T06:08:24;96228.94;;;23.01;41.91
40596;BME280;26304;48.794;9.820;2023-03-19T06:14:08;96241.34;;;23.31;41.35
40596;BME280;26304;48.794;9.820;2023-03-19T06:19:50;96252.47;;;23.46;41.42
40596;BME280;26304;48.794;9.820;2023-03-19T06:25:33;96247.03;;;23.53;41.20
40596;BME280;26304;48.794;9.820;2023-03-19T06:31:17;96248.47;;;23.58;41.24
40596;BME280;26304;48.794;9.820;2023-03-19T06:36:59;96255.22;;;23.63;41.02
40596;BME280;26304;48.794;9.820;2023-03-19T06:42:43;96257.56;;;23.81;40.98
40596;BME280;26304;48.794;9.820;2023-03-19T06:48:28;96257.25;;;23.99;40.58
40596;BME280;26304;48.794;9.820;2023-03-19T06:54:11;96259.63;;;23.93;40.65
40596;BME280;26304;48.794;9.820;2023-03-19T06:59:53;96255.84;;;23.70;41.22
40596;BME280;26304;48.794;9.820;2023-03-19T07:05:37;96251.59;;;23.53;41.67
40596;BME280;26304;48.794;9.820;2023-03-19T07:11:19;96262.84;;;23.37;42.00
40596;BME280;26304;48.794;9.820;2023-03-19T07:17:01;96264.25;;;23.21;42.12
40596;BME280;26304;48.794;9.820;2023-03-19T07:22:45;96269.75;;;23.07;42.56
40596;BME280;26304;48.794;9.820;2023-03-19T07:28:28;96273.28;;;22.97;42.58
40596;BME280;26304;48.794;9.820;2023-03-19T07:34:10;96267.00;;;22.87;42.88
40596;BME280;26304;48.794;9.820;2023-03-19T07:39:54;96274.03;;;22.70;43.19
40596;BME280;26304;48.794;9.820;2023-03-19T07:45:36;96278.91;;;22.75;43.39
40596;BME280;26304;48.794;9.820;2023-03-19T07:51:18;96283.50;;;22.71;43.62
40596;BME280;26304;48.794;9.820;2023-03-19T07:57:02;96280.94;;;22.64;43.83
40596;BME280;26304;48.794;9.820;2023-03-19T08:02:45;96276.44;;;22.61;43.83
40596;BME280;26304;48.794;9.820;2023-03-19T08:08:28;96281.75;;;22.61;43.52
40596;BME280;26304;48.794;9.820;2023-03-19T08:14:11;96278.06;;;22.51;44.32
40596;BME280;26304;48.794;9.820;2023-03-19T08:19:54;96282.56;;;22.54;43.84
40596;BME280;26304;48.794;9.820;2023-03-19T08:25:36;96279.00;;;22.37;44.31
40596;BME280;26304;48.794;9.820;2023-03-19T08:31:20;96276.50;;;21.88;44.51
40596;BME280;26304;48.794;9.820;2023-03-19T08:37:03;96281.09;;;21.81;44.86
40596;BME280;26304;48.794;9.820;2023-03-19T08:42:46;96287.66;;;22.07;44.71
40596;BME280;26304;48.794;9.820;2023-03-19T08:48:30;96289.91;;;22.08;44.96
40596;BME280;26304;48.794;9.820;2023-03-19T08:54:13;96292.91;;;22.10;44.97
40596;BME280;26304;48.794;9.820;2023-03-19T08:59:56;96290.66;;;22.09;45.09
40596;BME280;26304;48.794;9.820;2023-03-19T09:05:42;96287.28;;;22.05;45.37
40596;BME280;26304;48.794;9.820;2023-03-19T09:11:25;96305.69;;;22.16;46.17
40596;BME280;26304;48.794;9.820;2023-03-19T09:17:08;96304.19;;;22.14;46.35
40596;BME280;26304;48.794;9.820;2023-03-19T09:22:52;96306.56;;;21.67;45.57
40596;BME280;26304;48.794;9.820;2023-03-19T09:28:34;96304.53;;;21.37;45.68
40596;BME280;26304;48.794;9.820;2023-03-19T09:34:18;96302.97;;;21.39;45.44
40596;BME280;26304;48.794;9.820;2023-03-19T09:40:02;96290.16;;;21.34;45.24
40596;BME280;26304;48.794;9.820;2023-03-19T09:45:46;96292.53;;;21.21;45.38
40596;BME280;26304;48.794;9.820;2023-03-19T09:51:33;96286.94;;;21.16;45.43
40596;BME280;26304;48.794;9.820;2023-03-19T09:57:21;96283.91;;;21.14;45.20
40596;BME280;26304;48.794;9.820;2023-03-19T10:03:14;96284.63;;;21.18;45.25
40596;BME280;26304;48.794;9.820;2023-03-19T10:09:25;96284.28;;;21.16;44.80
40596;BME280;26304;48.794;9.820;2023-03-19T10:15:21;96272.59;;;21.13;45.11
40596;BME280;26304;48.794;9.820;2023-03-19T10:21:10;96276.13;;;20.92;45.17
40596;BME280;26304;48.794;9.820;2023-03-19T10:26:57;96278.34;;;20.97;45.07
40596;BME280;26304;48.794;9.820;2023-03-19T10:32:43;96271.09;;;21.09;45.07
40596;BME280;26304;48.794;9.820;2023-03-19T10:38:26;96267.25;;;21.17;45.05
40596;BME280;26304;48.794;9.820;2023-03-19T10:44:13;96261.38;;;20.98;44.65
40596;BME280;26304;48.794;9.820;2023-03-19T10:50:02;96261.38;;;20.95;44.49
40596;BME280;26304;48.794;9.820;2023-03-19T10:55:46;96252.38;;;20.89;44.22
40596;BME280;26304;48.794;9.820;2023-03-19T11:01:32;96242.56;;;20.89;44.27
40596;BME280;26304;48.794;9.820;2023-03-19T11:07:19;96238.06;;;20.82;44.19
40596;BME280;26304;48.794;9.820;2023-03-19T11:13:04;96235.03;;;20.84;43.75
40596;BME280;26304;48.794;9.820;2023-03-19T11:18:47;96229.00;;;20.87;43.68
40596;BME280;26304;48.794;9.820;2023-03-19T11:24:32;96225.22;;;20.84;43.68
40596;BME280;26304;48.794;9.820;2023-03-19T11:30:17;96218.81;;;20.82;43.53
40596;BME280;26304;48.794;9.820;2023-03-19T11:36:06;96224.88;;;20.79;43.43
40596;BME280;26304;48.794;9.820;2023-03-19T11:48:19;96216.66;;;20.70;43.41
40596;BME280;26304;48.794;9.820;2023-03-19T11:54:11;96213.25;;;20.65;43.04
40596;BME280;26304;48.794;9.820;2023-03-19T12:00:10;96205.72;;;20.64;43.03
40596;BME280;26304;48.794;9.820;2023-03-19T12:05:55;96195.91;;;20.64;43.72
40596;BME280;26304;48.794;9.820;2023-03-19T12:11:47;96196.59;;;20.76;43.36
40596;BME280;26304;48.794;9.820;2023-03-19T12:17:52;96191.38;;;20.61;43.64
40596;BME280;26304;48.794;9.820;2023-03-19T12:23:47;96182.75;;;20.50;44.17
40596;BME280;26304;48.794;9.820;2023-03-19T12:29:42;96181.28;;;20.45;43.96
40596;BME280;26304;48.794;9.820;2023-03-19T12:35:33;96177.84;;;20.56;43.92
40596;BME280;26304;48.794;9.820;2023-03-19T12:41:19;96171.72;;;20.73;43.74
40596;BME280;26304;48.794;9.820;2023-03-19T12:47:06;96166.06;;;21.16;42.50
40596;BME280;26304;48.794;9.820;2023-03-19T12:52:52;96163.19;;;21.80;41.55
40596;BME280;26304;48.794;9.820;2023-03-19T12:58:49;96158.56;;;22.14;41.30
40596;BME280;26304;48.794;9.820;2023-03-19T13:04:35;96167.16;;;22.26;41.50
40596;BME280;26304;48.794;9.820;2023-03-19T13:10:21;96155.16;;;22.72;40.62
40596;BME280;26304;48.794;9.820;2023-03-19T13:16:11;96151.63;;;22.79;40.40
40596;BME280;26304;48.794;9.820;2023-03-19T13:21:58;96151.97;;;22.81;40.08
40596;BME280;26304;48.794;9.820;2023-03-19T13:27:51;96142.88;;;22.82;39.55
40596;BME280;26304;48.794;9.820;2023-03-19T13:33:35;96132.78;;;22.97;38.66
40596;BME280;26304;48.794;9.820;2023-03-19T13:39:19;96135.16;;;22.91;38.61
40596;BME280;26304;48.794;9.820;2023-03-19T13:45:29;96138.78;;;22.77;38.74
40596;BME280;26304;48.794;9.820;2023-03-19T13:51:23;96143.38;;;22.49;40.52
40596;BME280;26304;48.794;9.820;2023-03-19T13:57:33;96135.28;;;22.33;40.62
40596;BME280;26304;48.794;9.820;2023-03-19T14:03:21;96130.88;;;22.23;40.30
40596;BME280;26304;48.794;9.820;2023-03-19T14:09:05;96134.03;;;22.41;40.82
40596;BME280;26304;48.794;9.820;2023-03-19T14:14:50;96126.75;;;22.73;40.31
40596;BME280;26304;48.794;9.820;2023-03-19T14:20:43;96125.00;;;22.86;39.81
40596;BME280;26304;48.794;9.820;2023-03-19T14:26:26;96128.41;;;22.87;39.79
40596;BME280;26304;48.794;9.820;2023-03-19T14:32:15;96129.44;;;22.93;39.37
40596;BME280;26304;48.794;9.820;2023-03-19T14:38:09;96129.00;;;22.98;38.41
40596;BME280;26304;48.794;9.820;2023-03-19T14:44:17;96144.41;;;22.28;39.54
40596;BME280;26304;48.794;9.820;2023-03-19T14:50:20;96145.34;;;21.84;40.23
40596;BME280;26304;48.794;9.820;2023-03-19T14:56:13;96149.44;;;21.19;41.33
40596;BME280;26304;48.794;9.820;2023-03-19T15:01:57;96149.81;;;21.18;41.29
40596;BME280;26304;48.794;9.820;2023-03-19T15:07:42;96152.50;;;21.11;41.72
40596;BME280;26304;48.794;9.820;2023-03-19T15:13:36;96149.81;;;21.18;41.46
40596;BME280;26304;48.794;9.820;2023-03-19T15:19:24;96150.06;;;20.89;41.36
40596;BME280;26304;48.794;9.820;2023-03-19T15:25:09;96150.25;;;21.09;42.00
40596;BME280;26304;48.794;9.820;2023-03-19T15:30:59;96155.03;;;21.63;42.21
40596;BME280;26304;48.794;9.820;2023-03-19T15:36:42;96158.59;;;21.84;42.24
40596;BME280;26304;48.794;9.820;2023-03-19T15:42:25;96168.31;;;21.94;41.56
40596;BME280;26304;48.794;9.820;2023-03-19T15:48:16;96163.03;;;21.90;41.69
40596;BME280;26304;48.794;9.820;2023-03-19T15:54:00;96169.44;;;21.93;41.80
40596;BME280;26304;48.794;9.820;2023-03-19T15:59:44;96179.69;;;21.91;42.12
40596;BME280;26304;48.794;9.820;2023-03-19T16:05:30;96184.88;;;21.67;43.37
40596;BME280;26304;48.794;9.820;2023-03-19T16:11:21;96199.06;;;21.81;42.67
40596;BME280;26304;48.794;9.820;2023-03-19T16:17:11;96226.69;;;21.80;44.17
40596;BME280;26304;48.794;9.820;2023-03-19T16:22:55;96243.31;;;21.80;43.79
40596;BME280;26304;48.794;9.820;2023-03-19T16:28:46;96249.59;;;21.93;45.51
40596;BME280;26304;48.794;9.820;2023-03-19T16:34:35;96251.81;;;21.99;45.42
40596;BME280;26304;48.794;9.820;2023-03-19T16:40:39;96267.25;;;22.04;44.74
40596;BME280;26304;48.794;9.820;2023-03-19T16:46:23;96261.19;;;22.03;45.45
40596;BME280;26304;48.794;9.820;2023-03-19T16:52:12;96270.94;;;22.13;45.36
40596;BME280;26304;48.794;9.820;2023-03-19T16:57:58;96281.91;;;22.46;46.28
40596;BME280;26304;48.794;9.820;2023-03-19T17:03:42;96278.47;;;22.49;46.55
40596;BME280;26304;48.794;9.820;2023-03-19T17:09:24;96286.69;;;22.24;46.44
40596;BME280;26304;48.794;9.820;2023-03-19T17:15:15;96292.81;;;22.18;45.97
40596;BME280;26304;48.794;9.820;2023-03-19T17:21:03;96298.91;;;22.14;45.76
40596;BME280;26304;48.794;9.820;2023-03-19T17:26:47;96304.28;;;22.07;46.05
40596;BME280;26304;48.794;9.820;2023-03-19T17:32:31;96299.38;;;22.06;45.54
40596;BME280;26304;48.794;9.820;2023-03-19T17:38:16;96306.19;;;22.03;45.54
40596;BME280;26304;48.794;9.820;2023-03-19T17:43:59;96300.91;;;22.03;45.85
40596;BME280;26304;48.794;9.820;2023-03-19T17:49:43;96309.91;;;22.09;46.15
40596;BME280;26304;48.794;9.820;2023-03-19T17:55:28;96316.78;;;22.03;46.54
40596;BME280;26304;48.794;9.820;2023-03-19T18:01:12;96319.03;;;22.05;46.27
40596;BME280;26304;48.794;9.820;2023-03-19T18:06:57;96326.59;;;22.06;46.83
40596;BME280;26304;48.794;9.820;2023-03-19T18:12:40;96328.22;;;21.97;46.62
40596;BME280;26304;48.794;9.820;2023-03-19T18:18:22;96323.28;;;21.99;46.97
40596;BME280;26304;48.794;9.820;2023-03-19T18:24:07;96339.56;;;21.97;46.45
40596;BME280;26304;48.794;9.820;2023-03-19T18:29:50;96339.22;;;21.91;47.10
40596;BME280;26304;48.794;9.820;2023-03-19T18:35:35;96342.22;;;21.93;47.02
40596;BME280;26304;48.794;9.820;2023-03-19T18:41:23;96345.25;;;21.95;46.45
40596;BME280;26304;48.794;9.820;2023-03-19T18:47:11;96354.63;;;22.04;46.89
40596;BME280;26304;48.794;9.820;2023-03-19T18:52:55;96363.50;;;21.83;47.27
40596;BME280;26304;48.794;9.820;2023-03-19T18:58:38;96372.66;;;21.71;47.17
40596;BME280;26304;48.794;9.820;2023-03-19T19:04:21;96371.84;;;21.81;46.57
40596;BME280;26304;48.794;9.820;2023-03-19T19:10:04;96375.84;;;21.97;45.90
40596;BME280;26304;48.794;9.820;2023-03-19T19:15:50;96389.81;;;22.01;46.94
40596;BME280;26304;48.794;9.820;2023-03-19T19:21:33;96398.63;;;21.87;47.29
40596;BME280;26304;48.794;9.820;2023-03-19T19:27:16;96408.38;;;21.97;46.34
40596;BME280;26304;48.794;9.820;2023-03-19T19:33:01;96398.09;;;21.54;45.82
40596;BME280;26304;48.794;9.820;2023-03-19T19:38:44;96396.94;;;20.88;45.91
40596;BME280;26304;48.794;9.820;2023-03-19T19:44:28;96398.94;;;20.55;46.24
40596;BME280;26304;48.794;9.820;2023-03-19T19:50:16;96398.56;;;20.46;46.35
40596;BME280;26304;48.794;9.820;2023-03-19T19:56:00;96407.63;;;20.45;47.67
40596;BME280;26304;48.794;9.820;2023-03-19T20:01:51;96417.44;;;20.41;46.38
40596;BME280;26304;48.794;9.820;2023-03-19T20:07:35;96426.88;;;20.31;46.02
40596;BME280;26304;48.794;9.820;2023-03-19T20:13:20;96434.81;;;20.24;47.84
40596;BME280;26304;48.794;9.820;2023-03-19T20:19:04;96437.84;;;20.08;47.85
40596;BME280;26304;48.794;9.820;2023-03-19T20:24:48;96442.00;;;20.02;46.53
40596;BME280;26304;48.794;9.820;2023-03-19T20:30:32;96435.22;;;19.83;47.03
40596;BME280;26304;48.794;9.820;2023-03-19T20:36:16;96447.97;;;19.70;47.24
40596;BME280;26304;48.794;9.820;2023-03-19T20:42:00;96451.00;;;19.75;47.18
40596;BME280;26304;48.794;9.820;2023-03-19T20:47:43;96452.47;;;19.58;47.39
40596;BME280;26304;48.794;9.820;2023-03-19T20:53:26;96455.50;;;19.53;47.64
40596;BME280;26304;48.794;9.820;2023-03-19T20:59:10;96467.25;;;19.81;46.82
40596;BME280;26304;48.794;9.820;2023-03-19T21:04:52;96462.34;;;19.90;46.67
40596;BME280;26304;48.794;9.820;2023-03-19T21:10:38;96469.88;;;19.92;46.70
40596;BME280;26304;48.794;9.820;2023-03-19T21:16:24;96467.63;;;19.90;46.70
40596;BME280;26304;48.794;9.820;2023-03-19T21:22:13;96472.16;;;19.90;46.87
40596;BME280;26304;48.794;9.820;2023-03-19T21:27:58;96472.16;;;19.90;46.72
40596;BME280;26304;48.794;9.820;2023-03-19T21:33:43;96469.13;;;19.88;47.01
40596;BME280;26304;48.794;9.820;2023-03-19T21:39:25;96471.38;;;19.89;46.59
40596;BME280;26304;48.794;9.820;2023-03-19T21:45:14;96469.13;;;19.88;46.86
40596;BME280;26304;48.794;9.820;2023-03-19T21:51:01;96469.50;;;19.86;47.07
40596;BME280;26304;48.794;9.820;2023-03-19T21:56:44;96471.38;;;19.86;46.77
40596;BME280;26304;48.794;9.820;2023-03-19T22:02:38;96478.94;;;19.84;47.00
40596;BME280;26304;48.794;9.820;2023-03-19T22:08:24;96478.56;;;19.82;47.13
40596;BME280;26304;48.794;9.820;2023-03-19T22:14:13;96480.44;;;19.81;46.98
40596;BME280;26304;48.794;9.820;2023-03-19T22:19:57;96476.66;;;19.78;46.75
40596;BME280;26304;48.794;9.820;2023-03-19T22:25:43;96479.31;;;19.78;47.20
40596;BME280;26304;48.794;9.820;2023-03-19T22:31:26;96482.31;;;19.77;47.00
40596;BME280;26304;48.794;9.820;2023-03-19T22:37:22;96481.88;;;19.75;47.00
40596;BME280;26304;48.794;9.820;2023-03-19T22:43:16;96488.72;;;19.76;47.22
40596;BME280;26304;48.794;9.820;2023-03-19T22:48:59;96486.78;;;19.73;46.59
40596;BME280;26304;48.794;9.820;2023-03-19T22:54:42;96487.94;;;19.75;46.41
40596;BME280;26304;48.794;9.820;2023-03-19T23:00:26;96485.28;;;19.72;46.61
40596;BME280;26304;48.794;9.820;2023-03-19T23:06:12;96483.03;;;19.74;46.83
40596;BME280;26304;48.794;9.820;2023-03-19T23:11:55;96496.22;;;19.74;46.76
40596;BME280;26304;48.794;9.820;2023-03-19T23:17:40;96495.06;;;19.75;46.96
40596;BME280;26304;48.794;9.820;2023-03-19T23:23:23;96493.19;;;19.72;47.02
40596;BME280;26304;48.794;9.820;2023-03-19T23:29:15;96496.97;;;19.71;47.03
40596;BME280;26304;48.794;9.820;2023-03-19T23:34:59;96493.94;;;19.69;47.08
40596;BME280;26304;48.794;9.820;2023-03-19T23:40:42;96498.47;;;19.68;47.15
40596;BME280;26304;48.794;9.820;2023-03-19T23:46:26;96494.72;;;19.69;46.77
40596;BME280;26304;48.794;9.820;2023-03-19T23:52:12;96506.75;;;19.67;46.74
40596;BME280;26304;48.794;9.820;2023-03-19T23:57:55;96505.25;;;19.66;47.14
